Time;durP1;ratioP1;P1;durP2;ratioP2;P2;SDS_P1;SDS_P2;PMS_P1;PMS_P2;Temp;Humidity;BMP_temperature;BMP_pressure;BME280_temperature;BME280_humidity;BME280_pressure;Samples;Min_cycle;Max_cycle;Signal;HPM_P1;HPM_P2
2021/01/30 00:00:17;;;;;;;1.73;0.90;;;;;;;;;;4996453;28;20394;-67
2021/01/30 00:02:43;;;;;;;1.70;0.87;;;;;;;;;;5011219;28;20557;-67
2021/01/30 00:05:09;;;;;;;1.73;1.00;;;;;;;;;;5015998;28;20410;-67
2021/01/30 00:07:35;;;;;;;11.90;1.30;;;;;;;;;;5014981;28;20958;-67
2021/01/30 00:10:01;;;;;;;1.70;0.90;;;;;;;;;;5015802;28;20764;-67
2021/01/30 00:12:27;;;;;;;1.30;0.70;;;;;;;;;;5014713;28;20844;-66
2021/01/30 00:14:54;;;;;;;2.03;0.90;;;;;;;;;;5016065;28;20469;-68
2021/01/30 00:17:20;;;;;;;1.60;0.80;;;;;;;;;;5002907;28;20433;-67
2021/01/30 00:19:46;;;;;;;1.83;1.00;;;;;;;;;;4996106;28;20409;-68
2021/01/30 00:22:15;;;;;;;3.93;1.10;;;;;;;;;;5006920;28;20447;-68
2021/01/30 00:24:45;;;;;;;2.83;1.03;;;;;;;;;;5016147;28;20808;-68
2021/01/30 00:27:13;;;;;;;1.67;0.87;;;;;;;;;;5009368;28;20527;-67
2021/01/30 00:29:39;;;;;;;3.20;1.10;;;;;;;;;;5015505;28;20407;-66
2021/01/30 00:32:06;;;;;;;1.77;1.17;;;;;;;;;;5014607;28;20787;-68
2021/01/30 00:34:32;;;;;;;1.63;0.90;;;;;;;;;;5015340;28;20445;-66
2021/01/30 00:37:02;;;;;;;1.83;1.27;;;;;;;;;;5014003;28;20516;-68
2021/01/30 00:39:28;;;;;;;2.60;1.00;;;;;;;;;;5015095;28;20908;-67
2021/01/30 00:41:54;;;;;;;1.90;1.00;;;;;;;;;;5034532;23;20432;-71
2021/01/30 00:44:20;;;;;;;1.90;1.07;;;;;;;;;;5027024;28;20426;-69
2021/01/30 00:46:49;;;;;;;1.63;1.00;;;;;;;;;;5031888;28;20518;-70
2021/01/30 00:49:15;;;;;;;1.50;0.90;;;;;;;;;;5035092;28;20395;-69
2021/01/30 00:51:42;;;;;;;1.30;0.90;;;;;;;;;;5034101;28;20469;-69
2021/01/30 00:54:08;;;;;;;2.10;1.20;;;;;;;;;;5034760;28;20437;-69
2021/01/30 00:56:34;;;;;;;1.87;1.17;;;;;;;;;;5029399;28;20459;-69
2021/01/30 00:59:00;;;;;;;3.03;1.10;;;;;;;;;;5029296;28;20539;-69
2021/01/30 01:01:26;;;;;;;1.70;0.90;;;;;;;;;;5028500;28;20445;-69
2021/01/30 01:03:52;;;;;;;2.03;1.03;;;;;;;;;;5033166;28;20455;-69
2021/01/30 01:06:18;;;;;;;3.07;1.17;;;;;;;;;;5034520;28;20495;-69
2021/01/30 01:08:44;;;;;;;3.73;1.10;;;;;;;;;;5033214;28;20427;-69
2021/01/30 01:11:10;;;;;;;1.80;1.20;;;;;;;;;;5034378;28;20413;-69
2021/01/30 01:13:36;;;;;;;1.47;0.83;;;;;;;;;;5033210;28;20448;-69
2021/01/30 01:16:03;;;;;;;2.83;0.90;;;;;;;;;;5034533;28;20473;-69
2021/01/30 01:18:29;;;;;;;2.40;1.53;;;;;;;;;;5031327;28;20521;-69
2021/01/30 01:20:55;;;;;;;2.00;1.10;;;;;;;;;;5014423;28;20886;-69
2021/01/30 01:23:21;;;;;;;1.40;1.00;;;;;;;;;;5024967;28;20446;-69
2021/01/30 01:25:47;;;;;;;1.53;1.00;;;;;;;;;;5033667;28;20425;-69
2021/01/30 01:28:13;;;;;;;9.50;1.20;;;;;;;;;;5034190;28;20400;-69
2021/01/30 01:30:39;;;;;;;3.30;1.40;;;;;;;;;;5033405;28;20431;-69
2021/01/30 01:33:05;;;;;;;1.57;0.93;;;;;;;;;;5034083;28;20448;-69
2021/01/30 01:35:32;;;;;;;4.23;1.00;;;;;;;;;;5033237;28;20873;-69
2021/01/30 01:37:59;;;;;;;2.00;1.20;;;;;;;;;;5033846;28;20413;-69
2021/01/30 01:40:30;;;;;;;1.90;1.30;;;;;;;;;;5033109;28;20572;-69
2021/01/30 01:43:01;;;;;;;5.73;1.43;;;;;;;;;;5033759;28;20498;-69
2021/01/30 01:45:27;;;;;;;1.30;0.90;;;;;;;;;;5032926;28;20468;-69
2021/01/30 01:47:54;;;;;;;1.87;1.13;;;;;;;;;;5033718;28;20772;-70
2021/01/30 01:50:26;;;;;;;5.10;1.53;;;;;;;;;;5031701;28;20446;-69
2021/01/30 01:52:52;;;;;;;1.37;0.87;;;;;;;;;;5033579;28;20477;-69
2021/01/30 01:55:19;;;;;;;1.90;1.10;;;;;;;;;;5031131;28;20837;-69
2021/01/30 01:57:47;;;;;;;2.30;1.10;;;;;;;;;;5033567;28;20400;-69
2021/01/30 02:00:14;;;;;;;1.43;1.00;;;;;;;;;;5031873;28;20447;-69
2021/01/30 02:02:41;;;;;;;1.40;0.90;;;;;;;;;;5033461;28;20431;-69
2021/01/30 02:05:09;;;;;;;2.37;1.00;;;;;;;;;;5032625;28;20445;-69
2021/01/30 02:07:39;;;;;;;1.73;1.07;;;;;;;;;;5033340;28;20424;-69
2021/01/30 02:10:13;;;;;;;1.40;0.80;;;;;;;;;;5020352;28;20435;-69
2021/01/30 02:12:39;;;;;;;1.40;0.90;;;;;;;;;;5013593;28;20430;-69
2021/01/30 02:15:06;;;;;;;1.40;0.97;;;;;;;;;;5025295;28;20984;-69
2021/01/30 02:17:45;;;;;;;1.40;0.90;;;;;;;;;;5031346;28;20443;-70
2021/01/30 02:20:29;;;;;;;1.87;0.90;;;;;;;;;;5031244;28;20435;-70
2021/01/30 02:22:55;;;;;;;1.30;0.80;;;;;;;;;;5031834;28;20459;-70
2021/01/30 02:25:40;;;;;;;3.00;1.23;;;;;;;;;;5031428;28;20940;-70
2021/01/30 02:28:17;;;;;;;1.40;0.90;;;;;;;;;;5033173;28;20431;-71
2021/01/30 02:31:02;;;;;;;2.70;1.20;;;;;;;;;;5020470;28;20474;-70
2021/01/30 02:33:46;;;;;;;1.30;0.80;;;;;;;;;;5013215;28;20425;-70
2021/01/30 02:36:31;;;;;;;2.83;1.10;;;;;;;;;;5013531;28;20819;-70
2021/01/30 02:39:03;;;;;;;1.30;0.90;;;;;;;;;;5013321;28;20416;-70
2021/01/30 02:41:33;;;;;;;1.90;0.80;;;;;;;;;;5031341;28;20427;-70
2021/01/30 02:44:01;;;;;;;1.30;0.80;;;;;;;;;;5032764;28;20875;-70
2021/01/30 02:46:29;;;;;;;1.30;0.90;;;;;;;;;;5030457;28;20454;-70
2021/01/30 02:48:57;;;;;;;1.90;1.10;;;;;;;;;;5032903;28;20414;-70
2021/01/30 02:51:24;;;;;;;2.90;1.10;;;;;;;;;;5015629;28;20522;-70
2021/01/30 02:53:55;;;;;;;1.40;0.80;;;;;;;;;;5013254;28;20427;-70
2021/01/30 02:56:22;;;;;;;1.47;0.80;;;;;;;;;;5029526;28;20463;-70
2021/01/30 02:59:14;;;;;;;1.40;0.80;;;;;;;;;;5032929;28;20404;-70
2021/01/30 03:01:40;;;;;;;1.50;0.87;;;;;;;;;;5027827;28;20443;-70
2021/01/30 03:04:12;;;;;;;1.40;0.70;;;;;;;;;;5013066;28;20412;-70
2021/01/30 03:07:01;;;;;;;1.40;0.80;;;;;;;;;;5026947;28;20420;-70
2021/01/30 03:09:27;;;;;;;1.53;0.80;;;;;;;;;;5032669;28;20398;-70
2021/01/30 03:12:08;;;;;;;1.27;0.80;;;;;;;;;;5035425;28;20929;-70
2021/01/30 03:14:38;;;;;;;2.87;1.17;;;;;;;;;;5036504;28;20542;-70
2021/01/30 03:17:04;;;;;;;1.33;0.90;;;;;;;;;;5026528;28;20430;-70
2021/01/30 03:19:31;;;;;;;2.00;1.13;;;;;;;;;;5016684;28;20539;-70
2021/01/30 03:22:00;;;;;;;1.50;1.00;;;;;;;;;;5025077;28;20462;-70
2021/01/30 03:24:27;;;;;;;1.87;0.87;;;;;;;;;;5036400;28;20413;-70
2021/01/30 03:26:53;;;;;;;1.20;0.70;;;;;;;;;;5035406;28;20440;-70
2021/01/30 03:29:20;;;;;;;7.00;0.90;;;;;;;;;;5036436;28;20414;-70
2021/01/30 03:31:46;;;;;;;1.63;0.80;;;;;;;;;;5033309;28;20432;-70
2021/01/30 03:34:13;;;;;;;1.30;0.77;;;;;;;;;;5034321;28;20432;-70
2021/01/30 03:36:39;;;;;;;1.60;0.97;;;;;;;;;;5035507;28;20425;-70
2021/01/30 03:39:09;;;;;;;1.20;0.77;;;;;;;;;;5036191;28;20423;-70
2021/01/30 03:41:35;;;;;;;1.83;1.00;;;;;;;;;;5035381;28;20435;-70
2021/01/30 03:44:01;;;;;;;1.30;0.83;;;;;;;;;;5036020;28;20772;-69
2021/01/30 03:46:27;;;;;;;3.53;1.00;;;;;;;;;;5035330;28;20800;-70
2021/01/30 03:48:53;;;;;;;3.30;1.00;;;;;;;;;;5036118;28;20402;-69
2021/01/30 03:51:19;;;;;;;1.73;0.90;;;;;;;;;;5034114;28;20414;-69
2021/01/30 03:53:45;;;;;;;2.10;0.87;;;;;;;;;;5020110;28;20511;-70
2021/01/30 03:56:11;;;;;;;1.93;0.97;;;;;;;;;;5028473;28;20464;-69
2021/01/30 03:58:38;;;;;;;4.23;1.23;;;;;;;;;;5032790;28;20442;-70
2021/01/30 04:01:04;;;;;;;1.40;0.97;;;;;;;;;;5035896;28;20768;-70
2021/01/30 04:03:30;;;;;;;1.87;1.07;;;;;;;;;;5034051;28;20451;-70
2021/01/30 04:05:56;;;;;;;1.77;0.93;;;;;;;;;;5035297;28;20601;-70
2021/01/30 04:08:22;;;;;;;1.30;0.80;;;;;;;;;;5029126;28;20427;-69
2021/01/30 04:10:48;;;;;;;2.33;1.20;;;;;;;;;;5035696;28;20417;-70
2021/01/30 04:13:14;;;;;;;1.87;0.80;;;;;;;;;;5023053;28;20498;-70
2021/01/30 04:15:42;;;;;;;6.97;1.47;;;;;;;;;;5015647;28;20460;-70
2021/01/30 04:18:08;;;;;;;2.13;1.00;;;;;;;;;;5015810;28;20559;-69
2021/01/30 04:20:35;;;;;;;2.27;1.00;;;;;;;;;;5015687;28;20412;-70
2021/01/30 04:23:01;;;;;;;2.00;1.10;;;;;;;;;;5023853;28;20451;-70
2021/01/30 04:25:27;;;;;;;1.40;0.90;;;;;;;;;;5035249;28;20420;-70
2021/01/30 04:27:54;;;;;;;1.93;1.00;;;;;;;;;;5034586;28;20512;-70
2021/01/30 04:30:21;;;;;;;2.17;1.00;;;;;;;;;;5033993;28;20408;-70
2021/01/30 04:32:47;;;;;;;5.60;1.27;;;;;;;;;;5033164;28;20527;-70
2021/01/30 04:35:14;;;;;;;1.80;0.90;;;;;;;;;;5035046;28;20968;-70
2021/01/30 04:37:40;;;;;;;1.40;0.93;;;;;;;;;;5034464;28;20464;-70
2021/01/30 04:40:07;;;;;;;1.30;0.80;;;;;;;;;;5033829;28;20432;-70
2021/01/30 04:42:33;;;;;;;3.30;1.03;;;;;;;;;;5033266;28;20558;-70
2021/01/30 04:45:04;;;;;;;1.63;1.10;;;;;;;;;;5035374;28;20495;-70
2021/01/30 04:47:39;;;;;;;3.80;1.10;;;;;;;;;;5034355;28;20483;-70
2021/01/30 04:50:05;;;;;;;3.13;1.33;;;;;;;;;;5035024;28;20955;-70
2021/01/30 04:52:47;;;;;;;2.70;1.63;;;;;;;;;;5034433;28;20532;-70
2021/01/30 04:55:35;;;;;;;2.10;0.93;;;;;;;;;;5034795;28;20462;-70
2021/01/30 04:58:01;;;;;;;1.77;1.20;;;;;;;;;;5033281;28;20836;-70
2021/01/30 05:00:45;;;;;;;2.13;0.93;;;;;;;;;;5034945;28;20925;-70
2021/01/30 05:03:20;;;;;;;2.03;1.30;;;;;;;;;;5034060;28;20460;-70
2021/01/30 05:05:48;;;;;;;5.03;1.23;;;;;;;;;;5034765;28;20921;-70
2021/01/30 05:08:17;;;;;;;2.57;1.20;;;;;;;;;;5034203;28;20438;-70
2021/01/30 05:10:52;;;;;;;4.83;1.60;;;;;;;;;;5033379;28;20438;-70
2021/01/30 05:13:23;;;;;;;4.47;1.50;;;;;;;;;;5033829;28;20460;-70
2021/01/30 05:15:54;;;;;;;5.87;1.53;;;;;;;;;;5034441;28;20458;-70
2021/01/30 05:18:31;;;;;;;3.13;1.00;;;;;;;;;;5023878;28;20430;-70
2021/01/30 05:21:03;;;;;;;2.17;1.10;;;;;;;;;;5014689;28;20768;-70
2021/01/30 05:23:29;;;;;;;2.80;1.47;;;;;;;;;;5014940;28;21015;-70
2021/01/30 05:26:18;;;;;;;1.70;1.13;;;;;;;;;;5014839;28;20433;-70
2021/01/30 05:28:56;;;;;;;2.20;1.07;;;;;;;;;;5027207;28;20466;-70
2021/01/30 05:31:33;;;;;;;8.40;1.40;;;;;;;;;;5018391;28;20526;-70
2021/01/30 05:33:59;;;;;;;8.67;1.77;;;;;;;;;;5013762;28;20462;-70
2021/01/30 05:36:41;;;;;;;2.20;1.10;;;;;;;;;;5014330;28;20451;-70
2021/01/30 05:39:26;;;;;;;2.60;1.00;;;;;;;;;;5014413;28;20475;-70
2021/01/30 05:42:07;;;;;;;4.03;1.30;;;;;;;;;;5014306;28;20470;-70
2021/01/30 05:44:35;;;;;;;4.10;1.17;;;;;;;;;;5014258;28;20441;-70
2021/01/30 05:47:02;;;;;;;3.23;1.30;;;;;;;;;;5014315;28;20405;-70
2021/01/30 05:49:31;;;;;;;3.20;1.23;;;;;;;;;;5031770;28;20425;-70
2021/01/30 05:51:57;;;;;;;2.93;1.10;;;;;;;;;;5033702;28;20426;-70
2021/01/30 05:54:23;;;;;;;6.30;1.30;;;;;;;;;;5016041;28;20478;-70
2021/01/30 05:56:49;;;;;;;2.70;1.30;;;;;;;;;;5013999;28;20421;-70
2021/01/30 05:59:25;;;;;;;8.97;1.70;;;;;;;;;;5028345;28;20426;-70
2021/01/30 06:01:51;;;;;;;3.43;1.37;;;;;;;;;;5033372;28;20409;-70
2021/01/30 06:04:26;;;;;;;1.80;1.20;;;;;;;;;;5031295;28;20524;-70
2021/01/30 06:06:56;;;;;;;7.53;1.90;;;;;;;;;;5033814;28;20792;-70
2021/01/30 06:09:37;;;;;;;3.80;1.17;;;;;;;;;;5032704;28;20619;-70
2021/01/30 06:12:17;;;;;;;3.50;1.77;;;;;;;;;;5033332;28;20553;-70
2021/01/30 06:14:43;;;;;;;2.60;1.30;;;;;;;;;;5014296;28;20540;-70
2021/01/30 06:17:22;;;;;;;4.63;1.60;;;;;;;;;;5013715;28;20459;-70
2021/01/30 06:20:00;;;;;;;2.90;1.20;;;;;;;;;;5034987;28;20908;-70
2021/01/30 06:22:26;;;;;;;3.37;1.40;;;;;;;;;;5034243;28;20451;-70
2021/01/30 06:24:52;;;;;;;4.50;1.17;;;;;;;;;;5036375;28;20407;-70
2021/01/30 06:27:28;;;;;;;3.23;1.50;;;;;;;;;;5035684;28;20397;-70
2021/01/30 06:30:03;;;;;;;10.23;2.60;;;;;;;;;;5033504;28;20982;-68
2021/01/30 06:32:35;;;;;;;5.43;1.30;;;;;;;;;;5033261;28;20789;-67
2021/01/30 06:35:11;;;;;;;3.50;1.20;;;;;;;;;;5021974;28;20485;-67
2021/01/30 06:37:55;;;;;;;1.87;1.20;;;;;;;;;;5030957;28;20802;-69
2021/01/30 06:40:24;;;;;;;4.30;1.30;;;;;;;;;;5032680;28;20423;-67
2021/01/30 06:42:51;;;;;;;4.00;1.53;;;;;;;;;;5061809;22;20493;-70
2021/01/30 06:45:23;;;;;;;4.60;1.13;;;;;;;;;;5052227;28;20770;-70
2021/01/30 06:47:50;;;;;;;4.47;1.60;;;;;;;;;;5050354;28;20471;-71
2021/01/30 06:50:25;;;;;;;3.30;1.47;;;;;;;;;;5048872;28;20461;-70
2021/01/30 06:52:51;;;;;;;4.33;1.30;;;;;;;;;;5043971;28;20532;-68
2021/01/30 06:55:17;;;;;;;2.57;1.53;;;;;;;;;;5030239;28;20558;-69
2021/01/30 06:57:48;;;;;;;9.53;1.43;;;;;;;;;;5026517;28;20428;-70
2021/01/30 07:00:17;;;;;;;3.40;1.20;;;;;;;;;;5032857;28;20436;-71
2021/01/30 07:02:47;;;;;;;10.57;1.60;;;;;;;;;;5031040;28;20526;-70
2021/01/30 07:05:19;;;;;;;3.67;1.27;;;;;;;;;;5032839;28;20897;-69
2021/01/30 07:07:54;;;;;;;4.30;1.50;;;;;;;;;;5032016;28;20872;-69
2021/01/30 07:10:20;;;;;;;4.00;1.40;;;;;;;;;;5031178;28;20439;-69
2021/01/30 07:12:55;;;;;;;3.23;1.40;;;;;;;;;;5029479;28;20452;-70
2021/01/30 07:15:26;;;;;;;2.33;1.70;;;;;;;;;;5032677;28;20462;-68
2021/01/30 07:17:59;;;;;;;4.10;1.23;;;;;;;;;;5031001;28;20428;-70
2021/01/30 07:20:27;;;;;;;7.30;2.73;;;;;;;;;;5030930;28;20418;-72
2021/01/30 07:22:56;;;;;;;6.90;1.70;;;;;;;;;;5029959;28;20840;-68
2021/01/30 07:25:27;;;;;;;5.10;1.40;;;;;;;;;;5013466;28;20429;-68
2021/01/30 07:27:57;;;;;;;5.30;2.13;;;;;;;;;;5013697;28;20922;-68
2021/01/30 07:30:37;;;;;;;3.70;1.97;;;;;;;;;;5030903;28;20428;-67
2021/01/30 07:33:07;;;;;;;5.20;1.50;;;;;;;;;;5031020;28;20556;-67
2021/01/30 07:35:37;;;;;;;8.43;1.83;;;;;;;;;;5029058;28;20545;-67
2021/01/30 07:38:06;;;;;;;4.70;1.70;;;;;;;;;;5031530;28;20797;-67
2021/01/30 07:40:32;;;;;;;6.20;1.60;;;;;;;;;;5032281;28;20519;-67
2021/01/30 07:43:11;;;;;;;3.43;1.53;;;;;;;;;;5031123;28;20609;-68
2021/01/30 07:45:41;;;;;;;6.57;1.43;;;;;;;;;;5032137;28;20542;-67
2021/01/30 07:48:07;;;;;;;3.10;1.70;;;;;;;;;;5029621;28;20874;-68
2021/01/30 07:50:34;;;;;;;3.43;1.17;;;;;;;;;;5032402;28;20445;-68
2021/01/30 07:53:00;;;;;;;2.93;1.30;;;;;;;;;;5031586;28;20421;-68
2021/01/30 07:55:27;;;;;;;10.80;1.70;;;;;;;;;;5036473;28;21018;-68
2021/01/30 07:57:58;;;;;;;5.00;1.90;;;;;;;;;;5049474;28;20396;-68
2021/01/30 08:00:45;;;;;;;6.40;1.47;;;;;;;;;;5049174;28;20413;-68
2021/01/30 08:03:11;;;;;;;2.33;1.13;;;;;;;;;;5037519;28;20442;-68
2021/01/30 08:05:46;;;;;;;5.67;2.07;;;;;;;;;;5044877;28;20924;-68
2021/01/30 08:08:19;;;;;;;4.60;1.47;;;;;;;;;;5039893;28;20418;-68
2021/01/30 08:10:52;;;;;;;5.50;1.67;;;;;;;;;;5016977;28;20455;-67
2021/01/30 08:13:23;;;;;;;2.60;1.60;;;;;;;;;;5018659;28;20801;-67
2021/01/30 08:15:52;;;;;;;8.47;2.00;;;;;;;;;;5036028;28;20534;-67
2021/01/30 08:18:44;;;;;;;4.27;1.83;;;;;;;;;;5033937;28;20698;-69
2021/01/30 08:21:29;;;;;;;2.70;1.27;;;;;;;;;;5032782;28;20470;-68
2021/01/30 08:23:54;;;;;;;2.77;1.23;;;;;;;;;;5034233;28;20471;-68
2021/01/30 08:26:24;;;;;;;7.47;1.70;;;;;;;;;;5035530;28;20419;-68
2021/01/30 08:29:11;;;;;;;3.30;1.43;;;;;;;;;;5034863;28;20523;-68
2021/01/30 08:31:37;;;;;;;2.93;1.10;;;;;;;;;;5024894;28;20420;-68
2021/01/30 08:34:03;;;;;;;1.83;1.57;;;;;;;;;;5034557;28;20448;-67
2021/01/30 08:36:42;;;;;;;7.17;1.70;;;;;;;;;;5035407;28;20468;-68
2021/01/30 08:39:17;;;;;;;5.03;2.10;;;;;;;;;;5033771;28;20882;-67
2021/01/30 08:41:51;;;;;;;7.33;2.03;;;;;;;;;;5035267;28;20405;-67
2021/01/30 08:44:43;;;;;;;3.53;1.90;;;;;;;;;;5033980;28;20464;-67
2021/01/30 08:47:11;;;;;;;4.60;1.10;;;;;;;;;;5012038;28;20498;-67
2021/01/30 08:49:38;;;;;;;5.07;2.07;;;;;;;;;;5022870;28;20507;-68
2021/01/30 08:52:13;;;;;;;4.73;1.70;;;;;;;;;;5029617;28;20478;-68
2021/01/30 08:54:40;;;;;;;9.30;2.00;;;;;;;;;;5022511;28;20871;-68
2021/01/30 08:57:27;;;;;;;4.43;1.10;;;;;;;;;;5014949;28;20402;-68
2021/01/30 08:59:53;;;;;;;7.23;1.43;;;;;;;;;;5015146;28;20942;-68
2021/01/30 09:02:28;;;;;;;8.07;3.03;;;;;;;;;;5014960;28;20557;-68
2021/01/30 09:05:03;;;;;;;5.27;1.60;;;;;;;;;;5028535;28;20436;-68
2021/01/30 09:07:36;;;;;;;5.97;1.73;;;;;;;;;;5034550;28;20423;-67
2021/01/30 09:10:14;;;;;;;6.83;1.43;;;;;;;;;;5033761;28;20759;-67
2021/01/30 09:12:59;;;;;;;2.80;1.20;;;;;;;;;;5034375;28;20420;-68
2021/01/30 09:15:43;;;;;;;10.63;2.40;;;;;;;;;;5033031;28;20467;-68
2021/01/30 09:18:23;;;;;;;7.80;2.17;;;;;;;;;;5031519;28;20514;-68
2021/01/30 09:20:52;;;;;;;4.57;2.40;;;;;;;;;;5027082;28;20819;-70
2021/01/30 09:23:18;;;;;;;9.27;1.67;;;;;;;;;;5033245;28;20444;-69
2021/01/30 09:26:03;;;;;;;5.87;1.50;;;;;;;;;;5031535;28;20424;-69
2021/01/30 09:28:31;;;;;;;3.60;1.47;;;;;;;;;;5034415;28;20408;-69
2021/01/30 09:31:00;;;;;;;8.47;2.13;;;;;;;;;;5033717;28;20440;-69
2021/01/30 09:33:32;;;;;;;4.03;1.70;;;;;;;;;;5034035;28;20432;-69
2021/01/30 09:36:18;;;;;;;2.60;1.40;;;;;;;;;;5031725;28;20487;-69
2021/01/30 09:38:46;;;;;;;6.13;1.50;;;;;;;;;;5033115;28;20433;-70
2021/01/30 09:41:14;;;;;;;5.43;1.63;;;;;;;;;;5033918;28;20406;-69
2021/01/30 09:43:40;;;;;;;2.13;1.40;;;;;;;;;;5032732;28;20827;-68
2021/01/30 09:46:08;;;;;;;5.80;2.00;;;;;;;;;;5033698;28;20786;-68
2021/01/30 09:48:37;;;;;;;3.67;1.67;;;;;;;;;;5034119;28;20407;-68
2021/01/30 09:51:05;;;;;;;7.53;2.67;;;;;;;;;;5014596;28;20429;-68
2021/01/30 09:53:31;;;;;;;3.57;1.67;;;;;;;;;;5014366;28;20479;-69
2021/01/30 09:56:03;;;;;;;2.17;1.17;;;;;;;;;;5013928;28;20479;-68
2021/01/30 09:58:29;;;;;;;7.90;1.53;;;;;;;;;;5014019;28;20400;-68
2021/01/30 10:00:57;;;;;;;2.80;1.30;;;;;;;;;;5031268;28;20772;-68
2021/01/30 10:03:26;;;;;;;4.53;1.20;;;;;;;;;;5033437;28;20437;-68
2021/01/30 10:05:56;;;;;;;6.90;1.60;;;;;;;;;;5015646;28;20544;-68
2021/01/30 10:08:25;;;;;;;5.37;1.50;;;;;;;;;;5013536;28;20961;-68
2021/01/30 10:11:01;;;;;;;7.30;1.77;;;;;;;;;;5029133;28;20920;-68
2021/01/30 10:13:27;;;;;;;6.20;1.70;;;;;;;;;;5033143;28;20938;-68
2021/01/30 10:15:54;;;;;;;6.87;1.87;;;;;;;;;;5032212;28;20459;-68
2021/01/30 10:18:22;;;;;;;3.70;1.50;;;;;;;;;;5025727;28;20427;-68
2021/01/30 10:20:50;;;;;;;4.50;1.63;;;;;;;;;;5028695;28;20502;-68
2021/01/30 10:23:47;;;;;;;4.97;1.70;;;;;;;;;;5033353;28;20437;-68
2021/01/30 10:26:21;;;;;;;2.53;1.03;;;;;;;;;;5020051;28;20441;-68
2021/01/30 10:28:49;;;;;;;3.50;1.33;;;;;;;;;;5033357;28;20398;-69
2021/01/30 10:31:18;;;;;;;6.13;1.67;;;;;;;;;;5032553;28;20719;-68
2021/01/30 10:33:50;;;;;;;1.70;1.00;;;;;;;;;;5033211;28;20513;-68
2021/01/30 10:36:17;;;;;;;3.47;1.10;;;;;;;;;;5030893;28;20456;-68
2021/01/30 10:38:43;;;;;;;4.03;1.97;;;;;;;;;;5033124;28;20432;-68
2021/01/30 10:41:14;;;;;;;4.67;2.07;;;;;;;;;;5032113;28;20534;-68
2021/01/30 10:43:42;;;;;;;10.40;1.47;;;;;;;;;;5032669;28;20527;-68
2021/01/30 10:46:13;;;;;;;4.50;1.50;;;;;;;;;;5031889;28;20452;-68
2021/01/30 10:48:39;;;;;;;5.47;1.33;;;;;;;;;;5033502;28;20755;-68
2021/01/30 10:51:05;;;;;;;4.70;1.30;;;;;;;;;;5031981;28;20522;-68
2021/01/30 10:53:32;;;;;;;10.37;1.90;;;;;;;;;;5033338;28;20460;-69
2021/01/30 10:55:58;;;;;;;3.57;1.20;;;;;;;;;;5032639;28;20824;-68
2021/01/30 10:58:24;;;;;;;3.60;1.27;;;;;;;;;;5032174;28;20435;-67
2021/01/30 11:01:08;;;;;;;3.60;1.70;;;;;;;;;;5017645;28;20423;-68
2021/01/30 11:03:51;;;;;;;3.27;1.63;;;;;;;;;;5013127;28;20972;-68
2021/01/30 11:06:34;;;;;;;4.57;1.60;;;;;;;;;;5025875;28;20439;-68
2021/01/30 11:09:02;;;;;;;7.00;1.67;;;;;;;;;;5032816;28;20469;-68
2021/01/30 11:11:31;;;;;;;3.00;1.70;;;;;;;;;;5018341;28;21026;-68
2021/01/30 11:13:59;;;;;;;3.57;1.93;;;;;;;;;;5012795;28;20433;-69
2021/01/30 11:16:36;;;;;;;5.87;1.60;;;;;;;;;;5012906;28;20960;-69
2021/01/30 11:19:17;;;;;;;2.77;1.50;;;;;;;;;;5013050;28;20398;-68
2021/01/30 11:21:43;;;;;;;3.03;1.70;;;;;;;;;;5028117;28;20429;-68
2021/01/30 11:24:24;;;;;;;4.30;1.13;;;;;;;;;;5032497;28;20732;-68
2021/01/30 11:26:50;;;;;;;5.53;3.10;;;;;;;;;;5030956;28;20424;-68
2021/01/30 11:29:42;;;;;;;4.47;1.80;;;;;;;;;;5032258;28;20920;-68
2021/01/30 11:32:11;;;;;;;7.13;1.97;;;;;;;;;;5030326;28;20995;-68
2021/01/30 11:34:37;;;;;;;9.00;1.50;;;;;;;;;;5036088;28;20405;-69
2021/01/30 11:37:03;;;;;;;2.87;1.53;;;;;;;;;;5022444;28;20434;-69
2021/01/30 11:39:31;;;;;;;5.73;2.30;;;;;;;;;;5016499;28;20410;-69
2021/01/30 11:41:58;;;;;;;4.33;1.87;;;;;;;;;;5027679;28;20485;-69
2021/01/30 11:44:24;;;;;;;4.13;1.40;;;;;;;;;;5036204;28;20422;-69
2021/01/30 11:46:51;;;;;;;8.10;2.00;;;;;;;;;;5035358;28;20480;-69
2021/01/30 11:49:17;;;;;;;5.20;1.50;;;;;;;;;;5036371;28;20762;-69
2021/01/30 11:51:43;;;;;;;6.57;1.90;;;;;;;;;;5033796;28;20436;-69
2021/01/30 11:54:11;;;;;;;2.80;1.30;;;;;;;;;;5036000;28;20873;-69
2021/01/30 11:56:37;;;;;;;8.53;1.57;;;;;;;;;;5031286;28;20465;-69
2021/01/30 11:59:03;;;;;;;5.80;1.63;;;;;;;;;;5016380;28;20767;-69
2021/01/30 12:01:31;;;;;;;4.30;1.73;;;;;;;;;;5016608;28;20477;-69
2021/01/30 12:03:57;;;;;;;11.07;2.17;;;;;;;;;;5016336;28;20476;-69
2021/01/30 12:06:23;;;;;;;7.30;1.90;;;;;;;;;;5017793;28;20432;-69
2021/01/30 12:08:49;;;;;;;4.70;1.53;;;;;;;;;;5035698;28;20411;-69
2021/01/30 12:11:15;;;;;;;3.47;1.33;;;;;;;;;;5035122;28;20405;-69
2021/01/30 12:13:41;;;;;;;2.73;1.20;;;;;;;;;;5034551;28;20447;-69
2021/01/30 12:16:07;;;;;;;5.43;2.40;;;;;;;;;;5035060;28;20460;-69
2021/01/30 12:18:33;;;;;;;10.57;1.83;;;;;;;;;;5016015;28;20425;-68
2021/01/30 12:21:00;;;;;;;5.90;1.53;;;;;;;;;;5015830;28;20405;-68
2021/01/30 12:23:27;;;;;;;5.63;1.70;;;;;;;;;;5033464;28;20447;-69
2021/01/30 12:25:53;;;;;;;5.40;1.37;;;;;;;;;;5022608;28;20448;-68
2021/01/30 12:28:21;;;;;;;5.40;1.27;;;;;;;;;;5015879;28;20461;-67
2021/01/30 12:30:47;;;;;;;2.63;1.27;;;;;;;;;;5015602;28;20940;-68
2021/01/30 12:33:13;;;;;;;4.30;2.83;;;;;;;;;;5031051;28;20481;-68
2021/01/30 12:35:39;;;;;;;5.33;1.53;;;;;;;;;;5035296;28;20456;-68
2021/01/30 12:38:05;;;;;;;4.80;1.50;;;;;;;;;;5019822;28;20419;-67
2021/01/30 12:40:33;;;;;;;3.87;1.53;;;;;;;;;;5015429;28;20416;-69
2021/01/30 12:42:59;;;;;;;7.97;2.00;;;;;;;;;;5027646;28;20499;-68
2021/01/30 12:45:26;;;;;;;5.27;1.83;;;;;;;;;;5035162;28;20428;-68
2021/01/30 12:47:52;;;;;;;3.33;1.60;;;;;;;;;;5034618;28;20528;-68
2021/01/30 12:50:19;;;;;;;4.20;1.60;;;;;;;;;;5038661;28;20417;-68
2021/01/30 12:52:45;;;;;;;6.50;1.40;;;;;;;;;;5027547;28;20454;-68
2021/01/30 12:55:12;;;;;;;2.70;1.30;;;;;;;;;;5020122;28;20452;-70
2021/01/30 12:57:38;;;;;;;7.73;1.93;;;;;;;;;;5027469;28;20986;-68
2021/01/30 13:00:07;;;;;;;8.80;2.07;;;;;;;;;;5033471;28;20424;-68
2021/01/30 13:02:33;;;;;;;7.73;1.93;;;;;;;;;;5034171;28;20449;-68
2021/01/30 13:04:59;;;;;;;2.83;1.47;;;;;;;;;;5034755;28;20404;-69
2021/01/30 13:07:25;;;;;;;3.80;1.40;;;;;;;;;;5034035;28;20441;-68
2021/01/30 13:09:51;;;;;;;6.30;2.00;;;;;;;;;;5034500;28;20409;-68
2021/01/30 13:12:17;;;;;;;2.87;1.60;;;;;;;;;;5033593;28;20446;-68
2021/01/30 13:14:43;;;;;;;2.93;1.50;;;;;;;;;;5033925;28;20777;-68
2021/01/30 13:17:10;;;;;;;2.77;1.37;;;;;;;;;;5029764;28;20465;-68
2021/01/30 13:19:39;;;;;;;2.43;1.03;;;;;;;;;;5014301;28;20423;-69
2021/01/30 13:22:05;;;;;;;3.53;1.17;;;;;;;;;;5018700;28;20420;-69
2021/01/30 13:24:31;;;;;;;2.90;1.50;;;;;;;;;;5034435;28;20408;-69
2021/01/30 13:27:04;;;;;;;6.03;1.43;;;;;;;;;;5031825;28;20428;-69
2021/01/30 13:29:31;;;;;;;3.80;1.50;;;;;;;;;;5014233;28;20921;-68
2021/01/30 13:31:57;;;;;;;2.10;1.40;;;;;;;;;;5017117;28;20770;-69
2021/01/30 13:34:23;;;;;;;2.00;1.40;;;;;;;;;;5024343;28;20481;-69
2021/01/30 13:36:53;;;;;;;8.10;1.10;;;;;;;;;;5028874;28;20525;-69
2021/01/30 13:39:19;;;;;;;3.70;1.10;;;;;;;;;;5030820;28;22236;-69
2021/01/30 13:41:45;;;;;;;3.33;1.27;;;;;;;;;;5032958;28;20406;-69
2021/01/30 13:44:11;;;;;;;3.27;1.43;;;;;;;;;;5033414;28;20484;-68
2021/01/30 13:46:37;;;;;;;4.10;1.50;;;;;;;;;;5033130;28;20417;-70
2021/01/30 13:49:04;;;;;;;2.03;1.10;;;;;;;;;;5032013;28;20433;-68
2021/01/30 13:51:30;;;;;;;3.43;1.00;;;;;;;;;;5033338;28;20412;-69
2021/01/30 13:53:57;;;;;;;1.60;1.10;;;;;;;;;;5030463;28;20883;-69
2021/01/30 13:56:23;;;;;;;2.07;1.23;;;;;;;;;;5032258;28;20815;-69
2021/01/30 13:58:49;;;;;;;4.93;1.37;;;;;;;;;;5030433;28;20431;-70
2021/01/30 14:01:15;;;;;;;1.50;1.10;;;;;;;;;;5033182;28;20404;-69
2021/01/30 14:03:41;;;;;;;1.70;1.17;;;;;;;;;;5032160;28;20543;-69
2021/01/30 14:06:07;;;;;;;2.83;1.20;;;;;;;;;;5032146;28;20782;-68
2021/01/30 14:08:33;;;;;;;2.70;1.07;;;;;;;;;;5017920;28;20440;-68
2021/01/30 14:10:59;;;;;;;4.47;1.00;;;;;;;;;;5019220;28;20428;-73
2021/01/30 14:13:25;;;;;;;2.87;1.43;;;;;;;;;;5029143;28;20505;-75
2021/01/30 14:15:51;;;;;;;1.93;1.07;;;;;;;;;;5025385;28;20931;-68
2021/01/30 14:18:18;;;;;;;2.20;1.30;;;;;;;;;;5032623;28;20431;-69
2021/01/30 14:20:45;;;;;;;1.73;0.90;;;;;;;;;;5032765;28;20858;-70
2021/01/30 14:23:11;;;;;;;3.27;1.10;;;;;;;;;;5031705;28;20541;-70
2021/01/30 14:25:37;;;;;;;8.07;1.57;;;;;;;;;;5028596;28;20416;-70
2021/01/30 14:28:03;;;;;;;2.03;1.20;;;;;;;;;;5031384;28;20496;-68
2021/01/30 14:30:30;;;;;;;5.80;1.10;;;;;;;;;;5031291;28;20422;-68
2021/01/30 14:32:56;;;;;;;3.33;1.30;;;;;;;;;;5031658;28;20443;-69
2021/01/30 14:35:23;;;;;;;1.67;1.10;;;;;;;;;;5033449;28;20454;-69
2021/01/30 14:37:49;;;;;;;1.50;0.80;;;;;;;;;;5032574;28;20901;-69
2021/01/30 14:40:23;;;;;;;3.00;1.03;;;;;;;;;;5026951;28;20428;-68
2021/01/30 14:42:49;;;;;;;1.70;1.07;;;;;;;;;;5031023;28;20496;-68
2021/01/30 14:45:15;;;;;;;1.47;0.97;;;;;;;;;;5032748;28;20410;-68
2021/01/30 14:47:41;;;;;;;1.70;1.13;;;;;;;;;;5030771;28;21029;-70
2021/01/30 14:50:07;;;;;;;2.30;1.07;;;;;;;;;;5033233;28;20516;-68
2021/01/30 14:52:33;;;;;;;2.37;1.00;;;;;;;;;;5032169;28;20906;-70
2021/01/30 14:54:59;;;;;;;1.53;0.93;;;;;;;;;;5032898;28;20462;-73
2021/01/30 14:57:25;;;;;;;3.33;1.10;;;;;;;;;;5033301;28;20408;-67